sensor_id;sensor_type;location;lat;lon;timestamp;pressure;altitude;pressure_sealevel;temperature;humidity
46347;BME280;32057;47.830;19.046;2023-04-21T00:02:09;100220.13;;;10.17;91.89
46347;BME280;32057;47.830;19.046;2023-04-21T00:04:35;100216.09;;;9.89;93.25
46347;BME280;32057;47.830;19.046;2023-04-21T00:07:00;100218.22;;;9.67;94.43
46347;BME280;32057;47.830;19.046;2023-04-21T00:09:27;100216.81;;;9.44;97.44
46347;BME280;32057;47.830;19.046;2023-04-21T00:11:53;100209.88;;;9.44;99.77
46347;BME280;32057;47.830;19.046;2023-04-21T00:14:18;100223.53;;;9.35;100.00
46347;BME280;32057;47.830;19.046;2023-04-21T00:16:44;100212.38;;;9.40;100.00
46347;BME280;32057;47.830;19.046;2023-04-21T00:19:09;100210.53;;;9.34;99.59
46347;BME280;32057;47.830;19.046;2023-04-21T00:21:37;100210.38;;;9.28;99.58
46347;BME280;32057;47.830;19.046;2023-04-21T00:24:03;100208.16;;;9.07;99.61
46347;BME280;32057;47.830;19.046;2023-04-21T00:26:29;100209.66;;;8.98;100.00
46347;BME280;32057;47.830;19.046;2023-04-21T00:28:54;100220.66;;;8.88;100.00
46347;BME280;32057;47.830;19.046;2023-04-21T00:31:19;100219.59;;;8.80;100.00
46347;BME280;32057;47.830;19.046;2023-04-21T00:33:45;100204.72;;;8.73;100.00
46347;BME280;32057;47.830;19.046;2023-04-21T00:36:11;100211.38;;;8.63;100.00
46347;BME280;32057;47.830;19.046;2023-04-21T00:38:36;100209.84;;;8.40;100.00
46347;BME280;32057;47.830;19.046;2023-04-21T00:41:02;100216.44;;;8.27;100.00
46347;BME280;32057;47.830;19.046;2023-04-21T00:43:27;100221.50;;;8.24;100.00
46347;BME280;32057;47.830;19.046;2023-04-21T00:45:53;100214.31;;;8.13;100.00
46347;BME280;32057;47.830;19.046;2023-04-21T00:48:18;100219.44;;;8.12;100.00
46347;BME280;32057;47.830;19.046;2023-04-21T00:50:44;100210.84;;;8.13;100.00
46347;BME280;32057;47.830;19.046;2023-04-21T00:53:11;100209.78;;;8.06;100.00
46347;BME280;32057;47.830;19.046;2023-04-21T00:55:37;100202.69;;;7.99;100.00
46347;BME280;32057;47.830;19.046;2023-04-21T00:58:03;100209.56;;;7.98;100.00
46347;BME280;32057;47.830;19.046;2023-04-21T01:00:28;100211.09;;;7.92;100.00
46347;BME280;32057;47.830;19.046;2023-04-21T01:02:54;100204.28;;;7.65;98.34
46347;BME280;32057;47.830;19.046;2023-04-21T01:05:20;100206.69;;;7.59;100.00
46347;BME280;32057;47.830;19.046;2023-04-21T01:07:47;100207.31;;;7.52;100.00
46347;BME280;32057;47.830;19.046;2023-04-21T01:10:13;100215.94;;;7.24;100.00
46347;BME280;32057;47.830;19.046;2023-04-21T01:12:46;100214.16;;;7.21;100.00
46347;BME280;32057;47.830;19.046;2023-04-21T01:15:16;100207.13;;;7.17;100.00
46347;BME280;32057;47.830;19.046;2023-04-21T01:17:41;100212.81;;;7.07;100.00
46347;BME280;32057;47.830;19.046;2023-04-21T01:20:11;100212.78;;;7.05;100.00
46347;BME280;32057;47.830;19.046;2023-04-21T01:22:39;100208.66;;;7.12;100.00
46347;BME280;32057;47.830;19.046;2023-04-21T01:25:06;100206.09;;;7.12;100.00
46347;BME280;32057;47.830;19.046;2023-04-21T01:27:32;100215.56;;;7.11;100.00
46347;BME280;32057;47.830;19.046;2023-04-21T01:29:57;100205.34;;;7.16;100.00
46347;BME280;32057;47.830;19.046;2023-04-21T01:32:27;100202.81;;;7.17;100.00
46347;BME280;32057;47.830;19.046;2023-04-21T01:34:55;100205.16;;;7.10;100.00
46347;BME280;32057;47.830;19.046;2023-04-21T01:37:24;100211.78;;;7.02;100.00
46347;BME280;32057;47.830;19.046;2023-04-21T01:39:52;100207.75;;;6.84;100.00
46347;BME280;32057;47.830;19.046;2023-04-21T01:42:23;100212.41;;;6.69;100.00
46347;BME280;32057;47.830;19.046;2023-04-21T01:44:50;100216.94;;;6.50;100.00
46347;BME280;32057;47.830;19.046;2023-04-21T01:47:18;100218.50;;;6.45;100.00
46347;BME280;32057;47.830;19.046;2023-04-21T01:49:43;100214.66;;;6.34;100.00
46347;BME280;32057;47.830;19.046;2023-04-21T01:52:09;100215.97;;;6.23;100.00
46347;BME280;32057;47.830;19.046;2023-04-21T01:54:34;100223.78;;;6.24;100.00
46347;BME280;32057;47.830;19.046;2023-04-21T01:57:00;100227.78;;;6.16;100.00
46347;BME280;32057;47.830;19.046;2023-04-21T01:59:26;100224.00;;;6.06;100.00
46347;BME280;32057;47.830;19.046;2023-04-21T02:01:52;100220.81;;;5.91;100.00
46347;BME280;32057;47.830;19.046;2023-04-21T02:04:17;100220.00;;;5.92;100.00
46347;BME280;32057;47.830;19.046;2023-04-21T02:06:42;100216.03;;;6.00;100.00
46347;BME280;32057;47.830;19.046;2023-04-21T02:09:08;100224.00;;;6.06;100.00
46347;BME280;32057;47.830;19.046;2023-04-21T02:11:33;100221.69;;;6.14;100.00
46347;BME280;32057;47.830;19.046;2023-04-21T02:13:59;100220.47;;;6.04;100.00
46347;BME280;32057;47.830;19.046;2023-04-21T02:16:24;100226.91;;;5.93;100.00
46347;BME280;32057;47.830;19.046;2023-04-21T02:18:53;100226.91;;;5.93;100.00
46347;BME280;32057;47.830;19.046;2023-04-21T02:21:21;100218.59;;;5.77;100.00
46347;BME280;32057;47.830;19.046;2023-04-21T02:23:46;100220.06;;;5.71;100.00
46347;BME280;32057;47.830;19.046;2023-04-21T02:26:12;100215.13;;;5.77;100.00
46347;BME280;32057;47.830;19.046;2023-04-21T02:28:37;100220.63;;;5.86;100.00
46347;BME280;32057;47.830;19.046;2023-04-21T02:31:02;100222.44;;;5.89;100.00
46347;BME280;32057;47.830;19.046;2023-04-21T02:33:28;100220.19;;;5.96;100.00
46347;BME280;32057;47.830;19.046;2023-04-21T02:35:54;100222.91;;;6.00;100.00
46347;BME280;32057;47.830;19.046;2023-04-21T02:38:19;100221.31;;;6.03;100.00
46347;BME280;32057;47.830;19.046;2023-04-21T02:40:44;100221.19;;;6.00;100.00
46347;BME280;32057;47.830;19.046;2023-04-21T02:43:10;100222.50;;;5.90;100.00
46347;BME280;32057;47.830;19.046;2023-04-21T02:45:36;100224.72;;;5.79;100.00
46347;BME280;32057;47.830;19.046;2023-04-21T02:48:02;100231.16;;;5.68;100.00
46347;BME280;32057;47.830;19.046;2023-04-21T02:50:27;100231.28;;;5.71;100.00
46347;BME280;32057;47.830;19.046;2023-04-21T02:52:53;100233.16;;;5.75;100.00
46347;BME280;32057;47.830;19.046;2023-04-21T02:55:18;100229.41;;;5.67;100.00
46347;BME280;32057;47.830;19.046;2023-04-21T02:57:43;100236.31;;;5.68;100.00
46347;BME280;32057;47.830;19.046;2023-04-21T03:00:09;100237.03;;;5.64;100.00
46347;BME280;32057;47.830;19.046;2023-04-21T03:02:38;100239.59;;;5.64;100.00
46347;BME280;32057;47.830;19.046;2023-04-21T03:05:04;100240.38;;;5.62;100.00
46347;BME280;32057;47.830;19.046;2023-04-21T03:07:30;100240.44;;;5.63;100.00
46347;BME280;32057;47.830;19.046;2023-04-21T03:09:55;100240.78;;;5.50;100.00
46347;BME280;32057;47.830;19.046;2023-04-21T03:12:21;100241.41;;;5.44;100.00
46347;BME280;32057;47.830;19.046;2023-04-21T03:14:46;100240.47;;;5.42;100.00
46347;BME280;32057;47.830;19.046;2023-04-21T03:17:12;100243.19;;;5.45;100.00
46347;BME280;32057;47.830;19.046;2023-04-21T03:19:37;100240.53;;;5.44;100.00
46347;BME280;32057;47.830;19.046;2023-04-21T03:22:03;100249.91;;;5.42;100.00
46347;BME280;32057;47.830;19.046;2023-04-21T03:24:28;100244.69;;;5.40;100.00
46347;BME280;32057;47.830;19.046;2023-04-21T03:26:54;100256.50;;;5.35;100.00
46347;BME280;32057;47.830;19.046;2023-04-21T03:29:21;100249.16;;;5.23;100.00
46347;BME280;32057;47.830;19.046;2023-04-21T03:31:47;100253.13;;;5.15;100.00
46347;BME280;32057;47.830;19.046;2023-04-21T03:34:12;100258.28;;;5.15;100.00
46347;BME280;32057;47.830;19.046;2023-04-21T03:36:37;100258.44;;;5.18;100.00
46347;BME280;32057;47.830;19.046;2023-04-21T03:39:03;100251.50;;;4.96;100.00
46347;BME280;32057;47.830;19.046;2023-04-21T03:41:28;100260.69;;;4.89;100.00
46347;BME280;32057;47.830;19.046;2023-04-21T03:43:54;100263.28;;;4.89;100.00
46347;BME280;32057;47.830;19.046;2023-04-21T03:46:20;100269.78;;;4.81;100.00
46347;BME280;32057;47.830;19.046;2023-04-21T03:48:46;100266.78;;;4.91;100.00
46347;BME280;32057;47.830;19.046;2023-04-21T03:51:12;100271.00;;;4.89;100.00
46347;BME280;32057;47.830;19.046;2023-04-21T03:53:38;100271.28;;;4.76;100.00
46347;BME280;32057;47.830;19.046;2023-04-21T03:56:04;100269.66;;;4.78;100.00
46347;BME280;32057;47.830;19.046;2023-04-21T03:58:29;100262.81;;;4.78;100.00
46347;BME280;32057;47.830;19.046;2023-04-21T04:00:55;100268.81;;;4.79;100.00
46347;BME280;32057;47.830;19.046;2023-04-21T04:03:21;100263.06;;;4.85;100.00
46347;BME280;32057;47.830;19.046;2023-04-21T04:05:46;100264.56;;;4.79;100.00
46347;BME280;32057;47.830;19.046;2023-04-21T04:08:11;100275.50;;;4.74;100.00
46347;BME280;32057;47.830;19.046;2023-04-21T04:10:37;100270.88;;;4.86;100.00
46347;BME280;32057;47.830;19.046;2023-04-21T04:13:02;100271.63;;;4.84;100.00
46347;BME280;32057;47.830;19.046;2023-04-21T04:15:28;100278.78;;;4.91;100.00
46347;BME280;32057;47.830;19.046;2023-04-21T04:17:53;100273.41;;;5.06;100.00
46347;BME280;32057;47.830;19.046;2023-04-21T04:20:19;100271.63;;;5.05;100.00
46347;BME280;32057;47.830;19.046;2023-04-21T04:22:44;100270.81;;;5.06;100.00
46347;BME280;32057;47.830;19.046;2023-04-21T04:25:10;100275.47;;;5.14;100.00
46347;BME280;32057;47.830;19.046;2023-04-21T04:27:37;100275.03;;;5.04;100.00
46347;BME280;32057;47.830;19.046;2023-04-21T04:30:03;100285.72;;;5.13;100.00
46347;BME280;32057;47.830;19.046;2023-04-21T04:32:29;100281.09;;;5.25;100.00
46347;BME280;32057;47.830;19.046;2023-04-21T04:34:55;100283.16;;;5.77;100.00
46347;BME280;32057;47.830;19.046;2023-04-21T04:37:21;100284.97;;;6.01;100.00
46347;BME280;32057;47.830;19.046;2023-04-21T04:39:46;100279.09;;;6.05;100.00
46347;BME280;32057;47.830;19.046;2023-04-21T04:42:12;100291.56;;;6.17;100.00
46347;BME280;32057;47.830;19.046;2023-04-21T04:44:38;100281.41;;;6.22;100.00
46347;BME280;32057;47.830;19.046;2023-04-21T04:47:05;100289.59;;;6.34;100.00
46347;BME280;32057;47.830;19.046;2023-04-21T04:49:31;100284.38;;;6.56;100.00
46347;BME280;32057;47.830;19.046;2023-04-21T04:51:56;100281.63;;;7.27;100.00
46347;BME280;32057;47.830;19.046;2023-04-21T04:54:22;100279.81;;;8.08;100.00
46347;BME280;32057;47.830;19.046;2023-04-21T04:56:48;100283.84;;;8.58;100.00
46347;BME280;32057;47.830;19.046;2023-04-21T04:59:14;100274.38;;;8.92;100.00
46347;BME280;32057;47.830;19.046;2023-04-21T05:01:40;100278.31;;;9.46;100.00
46347;BME280;32057;47.830;19.046;2023-04-21T05:04:06;100282.03;;;9.56;100.00
46347;BME280;32057;47.830;19.046;2023-04-21T05:06:31;100278.31;;;9.46;100.00
46347;BME280;32057;47.830;19.046;2023-04-21T05:08:57;100275.34;;;9.29;100.00
46347;BME280;32057;47.830;19.046;2023-04-21T05:11:22;100279.28;;;9.13;100.00
46347;BME280;32057;47.830;19.046;2023-04-21T05:13:48;100274.63;;;9.02;100.00
46347;BME280;32057;47.830;19.046;2023-04-21T05:16:13;100278.16;;;9.04;100.00
46347;BME280;32057;47.830;19.046;2023-04-21T05:18:38;100273.91;;;9.07;100.00
46347;BME280;32057;47.830;19.046;2023-04-21T05:21:04;100278.56;;;9.19;100.00
46347;BME280;32057;47.830;19.046;2023-04-21T05:23:30;100280.69;;;9.35;100.00
46347;BME280;32057;47.830;19.046;2023-04-21T05:25:55;100280.25;;;9.53;100.00
46347;BME280;32057;47.830;19.046;2023-04-21T05:28:21;100279.78;;;9.71;100.00
46347;BME280;32057;47.830;19.046;2023-04-21T05:30:47;100268.06;;;9.89;100.00
46347;BME280;32057;47.830;19.046;2023-04-21T05:33:13;100275.59;;;10.17;100.00
46347;BME280;32057;47.830;19.046;2023-04-21T05:35:38;100278.59;;;10.36;100.00
46347;BME280;32057;47.830;19.046;2023-04-21T05:38:04;100281.75;;;10.64;100.00
46347;BME280;32057;47.830;19.046;2023-04-21T05:40:30;100267.88;;;10.63;100.00
46347;BME280;32057;47.830;19.046;2023-04-21T05:42:55;100270.28;;;11.00;99.88
46347;BME280;32057;47.830;19.046;2023-04-21T05:45:21;100260.16;;;11.18;100.00
46347;BME280;32057;47.830;19.046;2023-04-21T05:47:46;100258.69;;;11.32;100.00
46347;BME280;32057;47.830;19.046;2023-04-21T05:50:12;100260.75;;;11.55;100.00
46347;BME280;32057;47.830;19.046;2023-04-21T05:52:37;100261.19;;;11.83;100.00
46347;BME280;32057;47.830;19.046;2023-04-21T05:55:03;100254.41;;;11.95;100.00
46347;BME280;32057;47.830;19.046;2023-04-21T05:57:28;100247.03;;;12.31;98.74
46347;BME280;32057;47.830;19.046;2023-04-21T05:59:54;100254.06;;;12.37;83.53
46347;BME280;32057;47.830;19.046;2023-04-21T06:02:19;100256.75;;;12.43;76.32
46347;BME280;32057;47.830;19.046;2023-04-21T06:04:45;100264.34;;;12.23;73.76
46347;BME280;32057;47.830;19.046;2023-04-21T06:07:10;100259.53;;;12.58;76.10
46347;BME280;32057;47.830;19.046;2023-04-21T06:09:38;100260.50;;;12.66;74.19
46347;BME280;32057;47.830;19.046;2023-04-21T06:12:04;100254.63;;;12.92;73.01
46347;BME280;32057;47.830;19.046;2023-04-21T06:14:30;100256.78;;;13.31;68.66
46347;BME280;32057;47.830;19.046;2023-04-21T06:16:55;100256.81;;;13.38;66.96
46347;BME280;32057;47.830;19.046;2023-04-21T06:19:21;100249.22;;;13.68;72.85
46347;BME280;32057;47.830;19.046;2023-04-21T06:21:46;100247.25;;;13.40;69.19
46347;BME280;32057;47.830;19.046;2023-04-21T06:24:12;100249.06;;;13.47;68.20
46347;BME280;32057;47.830;19.046;2023-04-21T06:26:37;100250.16;;;13.86;68.55
46347;BME280;32057;47.830;19.046;2023-04-21T06:29:02;100248.56;;;14.11;66.83
46347;BME280;32057;47.830;19.046;2023-04-21T06:31:28;100251.22;;;14.25;59.80
46347;BME280;32057;47.830;19.046;2023-04-21T06:33:53;100251.25;;;14.31;63.36
46347;BME280;32057;47.830;19.046;2023-04-21T06:36:19;100246.03;;;14.31;63.95
46347;BME280;32057;47.830;19.046;2023-04-21T06:38:47;100244.31;;;14.45;63.69
46347;BME280;32057;47.830;19.046;2023-04-21T06:41:12;100252.22;;;14.50;57.79
46347;BME280;32057;47.830;19.046;2023-04-21T06:43:38;100248.78;;;14.66;61.80
46347;BME280;32057;47.830;19.046;2023-04-21T06:46:03;100241.81;;;14.76;61.65
46347;BME280;32057;47.830;19.046;2023-04-21T06:48:29;100253.19;;;14.93;58.36
46347;BME280;32057;47.830;19.046;2023-04-21T06:50:54;100251.41;;;14.83;58.05
46347;BME280;32057;47.830;19.046;2023-04-21T06:53:20;100248.78;;;14.76;58.53
46347;BME280;32057;47.830;19.046;2023-04-21T06:55:46;100247.09;;;14.90;60.34
46347;BME280;32057;47.830;19.046;2023-04-21T06:58:12;100254.06;;;14.94;58.34
46347;BME280;32057;47.830;19.046;2023-04-21T07:00:37;100242.69;;;14.93;58.18
46347;BME280;32057;47.830;19.046;2023-04-21T07:03:03;100246.22;;;15.02;56.48
46347;BME280;32057;47.830;19.046;2023-04-21T07:05:28;100243.59;;;14.94;58.07
46347;BME280;32057;47.830;19.046;2023-04-21T07:07:54;100235.72;;;15.05;57.56
46347;BME280;32057;47.830;19.046;2023-04-21T07:10:24;100234.84;;;15.13;56.44
46347;BME280;32057;47.830;19.046;2023-04-21T07:12:50;100238.38;;;15.26;55.98
46347;BME280;32057;47.830;19.046;2023-04-21T07:15:15;100244.47;;;15.48;55.43
46347;BME280;32057;47.830;19.046;2023-04-21T07:17:41;100237.47;;;15.58;56.98
46347;BME280;32057;47.830;19.046;2023-04-21T07:20:07;100235.72;;;15.54;55.81
46347;BME280;32057;47.830;19.046;2023-04-21T07:22:32;100233.94;;;15.59;56.34
46347;BME280;32057;47.830;19.046;2023-04-21T07:25:01;100237.44;;;15.64;53.59
46347;BME280;32057;47.830;19.046;2023-04-21T07:27:30;100229.56;;;15.86;57.09
46347;BME280;32057;47.830;19.046;2023-04-21T07:29:56;100237.44;;;15.73;55.45
46347;BME280;32057;47.830;19.046;2023-04-21T07:32:21;100229.56;;;15.81;52.71
46347;BME280;32057;47.830;19.046;2023-04-21T07:34:46;100223.44;;;15.87;56.85
46347;BME280;32057;47.830;19.046;2023-04-21T07:37:12;100225.13;;;15.99;51.61
46347;BME280;32057;47.830;19.046;2023-04-21T07:39:37;100226.00;;;16.04;55.23
46347;BME280;32057;47.830;19.046;2023-04-21T07:42:03;100222.44;;;16.19;56.34
46347;BME280;32057;47.830;19.046;2023-04-21T07:44:32;100225.09;;;16.03;55.50
46347;BME280;32057;47.830;19.046;2023-04-21T07:46:57;100221.59;;;16.12;52.53
46347;BME280;32057;47.830;19.046;2023-04-21T07:49:23;100220.63;;;16.25;52.35
46347;BME280;32057;47.830;19.046;2023-04-21T07:51:48;100220.69;;;16.18;50.96
46347;BME280;32057;47.830;19.046;2023-04-21T07:54:14;100226.72;;;16.38;57.45
46347;BME280;32057;47.830;19.046;2023-04-21T07:56:39;100229.50;;;16.03;51.83
46347;BME280;32057;47.830;19.046;2023-04-21T07:59:05;100221.69;;;15.67;52.13
46347;BME280;32057;47.830;19.046;2023-04-21T08:01:30;100220.81;;;15.70;54.14
46347;BME280;32057;47.830;19.046;2023-04-21T08:03:55;100225.97;;;16.07;54.38
46347;BME280;32057;47.830;19.046;2023-04-21T08:06:21;100221.59;;;16.13;51.29
46347;BME280;32057;47.830;19.046;2023-04-21T08:08:46;100212.75;;;16.27;50.25
46347;BME280;32057;47.830;19.046;2023-04-21T08:11:12;100210.03;;;16.48;55.29
46347;BME280;32057;47.830;19.046;2023-04-21T08:13:37;100203.78;;;16.68;51.39
46347;BME280;32057;47.830;19.046;2023-04-21T08:16:03;100204.78;;;16.47;48.31
46347;BME280;32057;47.830;19.046;2023-04-21T08:18:28;100205.63;;;16.53;53.24
46347;BME280;32057;47.830;19.046;2023-04-21T08:20:54;100211.59;;;16.79;53.47
46347;BME280;32057;47.830;19.046;2023-04-21T08:23:22;100189.69;;;16.81;51.33
46347;BME280;32057;47.830;19.046;2023-04-21T08:25:47;100186.38;;;16.51;51.74
46347;BME280;32057;47.830;19.046;2023-04-21T08:28:12;100193.19;;;16.77;50.72
46347;BME280;32057;47.830;19.046;2023-04-21T08:30:40;100189.63;;;16.94;53.08
46347;BME280;32057;47.830;19.046;2023-04-21T08:33:06;100198.25;;;17.08;48.92
46347;BME280;32057;47.830;19.046;2023-04-21T08:35:33;100194.66;;;17.17;51.72
46347;BME280;32057;47.830;19.046;2023-04-21T08:37:58;100193.56;;;17.41;50.56
46347;BME280;32057;47.830;19.046;2023-04-21T08:40:32;100196.00;;;17.59;47.57
46347;BME280;32057;47.830;19.046;2023-04-21T08:42:58;100207.16;;;17.86;47.65
46347;BME280;32057;47.830;19.046;2023-04-21T08:45:24;100196.75;;;17.70;47.77
46347;BME280;32057;47.830;19.046;2023-04-21T08:47:54;100187.16;;;17.66;45.78
46347;BME280;32057;47.830;19.046;2023-04-21T08:50:21;100193.13;;;17.82;50.54
46347;BME280;32057;47.830;19.046;2023-04-21T08:52:50;100177.28;;;17.90;48.20
46347;BME280;32057;47.830;19.046;2023-04-21T08:55:16;100170.72;;;18.22;42.82
46347;BME280;32057;47.830;19.046;2023-04-21T08:57:41;100179.31;;;18.36;43.53
46347;BME280;32057;47.830;19.046;2023-04-21T09:00:07;100179.31;;;18.36;48.04
46347;BME280;32057;47.830;19.046;2023-04-21T09:02:51;100176.69;;;18.33;46.97
46347;BME280;32057;47.830;19.046;2023-04-21T09:05:28;100187.97;;;18.44;49.73
46347;BME280;32057;47.830;19.046;2023-04-21T09:08:08;100191.63;;;18.34;49.14
46347;BME280;32057;47.830;19.046;2023-04-21T09:10:44;100180.44;;;18.17;47.87
46347;BME280;32057;47.830;19.046;2023-04-21T09:13:10;100175.94;;;18.25;51.04
46347;BME280;32057;47.830;19.046;2023-04-21T09:15:43;100174.88;;;18.38;49.32
46347;BME280;32057;47.830;19.046;2023-04-21T09:20:38;100168.41;;;18.61;43.86
46347;BME280;32057;47.830;19.046;2023-04-21T09:23:04;100164.09;;;18.55;46.96
46347;BME280;32057;47.830;19.046;2023-04-21T09:25:31;100158.03;;;18.51;46.83
46347;BME280;32057;47.830;19.046;2023-04-21T09:27:57;100159.84;;;18.46;49.96
46347;BME280;32057;47.830;19.046;2023-04-21T09:30:24;100160.19;;;18.23;46.51
46347;BME280;32057;47.830;19.046;2023-04-21T09:32:49;100151.66;;;18.04;49.33
46347;BME280;32057;47.830;19.046;2023-04-21T09:35:15;100152.47;;;18.09;50.21
46347;BME280;32057;47.830;19.046;2023-04-21T09:37:42;100154.97;;;18.19;51.04
46347;BME280;32057;47.830;19.046;2023-04-21T09:40:12;100145.88;;;18.41;52.58
46347;BME280;32057;47.830;19.046;2023-04-21T09:42:38;100139.59;;;18.48;45.27
46347;BME280;32057;47.830;19.046;2023-04-21T09:45:04;100143.28;;;18.37;45.41
46347;BME280;32057;47.830;19.046;2023-04-21T09:47:32;100147.13;;;18.14;47.75
46347;BME280;32057;47.830;19.046;2023-04-21T09:50:05;100148.19;;;17.99;45.45
46347;BME280;32057;47.830;19.046;2023-04-21T09:52:31;100152.81;;;17.79;47.24
46347;BME280;32057;47.830;19.046;2023-04-21T09:55:00;100155.81;;;17.48;44.16
46347;BME280;32057;47.830;19.046;2023-04-21T09:57:30;100144.44;;;17.41;50.86
46347;BME280;32057;47.830;19.046;2023-04-21T10:00:05;100146.19;;;17.44;48.51
46347;BME280;32057;47.830;19.046;2023-04-21T10:02:34;100137.47;;;17.37;43.69
46347;BME280;32057;47.830;19.046;2023-04-21T10:05:03;100134.97;;;17.26;45.98
46347;BME280;32057;47.830;19.046;2023-04-21T10:07:30;100140.16;;;17.32;48.66
46347;BME280;32057;47.830;19.046;2023-04-21T10:09:58;100127.81;;;17.41;46.14
46347;BME280;32057;47.830;19.046;2023-04-21T10:12:25;100125.25;;;17.35;45.68
46347;BME280;32057;47.830;19.046;2023-04-21T10:14:52;100130.50;;;17.36;44.46
46347;BME280;32057;47.830;19.046;2023-04-21T10:17:22;100123.59;;;17.26;43.38
46347;BME280;32057;47.830;19.046;2023-04-21T10:19:56;100122.75;;;17.22;44.30
46347;BME280;32057;47.830;19.046;2023-04-21T10:22:25;100129.84;;;17.16;49.04
46347;BME280;32057;47.830;19.046;2023-04-21T10:24:54;100119.38;;;17.09;45.65
46347;BME280;32057;47.830;19.046;2023-04-21T10:27:40;100118.56;;;17.03;46.95
46347;BME280;32057;47.830;19.046;2023-04-21T10:30:19;100120.25;;;17.07;45.06
46347;BME280;32057;47.830;19.046;2023-04-21T10:32:45;100124.66;;;17.08;46.34
46347;BME280;32057;47.830;19.046;2023-04-21T10:35:14;100121.25;;;16.97;45.00
46347;BME280;32057;47.830;19.046;2023-04-21T10:37:41;100112.50;;;16.95;47.59
46347;BME280;32057;47.830;19.046;2023-04-21T10:40:32;100111.63;;;16.96;50.82
46347;BME280;32057;47.830;19.046;2023-04-21T10:43:01;100112.38;;;17.05;50.53
46347;BME280;32057;47.830;19.046;2023-04-21T10:45:27;100116.59;;;17.23;45.57
46347;BME280;32057;47.830;19.046;2023-04-21T10:47:52;100109.22;;;17.56;50.84
46347;BME280;32057;47.830;19.046;2023-04-21T10:50:22;100097.50;;;17.82;47.18
46347;BME280;32057;47.830;19.046;2023-04-21T10:53:08;100092.84;;;18.04;48.77
46347;BME280;32057;47.830;19.046;2023-04-21T10:55:35;100089.00;;;18.26;46.03
46347;BME280;32057;47.830;19.046;2023-04-21T10:58:03;100086.66;;;18.65;42.14
46347;BME280;32057;47.830;19.046;2023-04-21T11:00:29;100092.38;;;18.35;43.32
46347;BME280;32057;47.830;19.046;2023-04-21T11:03:02;100083.81;;;18.23;45.05
46347;BME280;32057;47.830;19.046;2023-04-21T11:05:31;100092.50;;;17.62;42.16
46347;BME280;32057;47.830;19.046;2023-04-21T11:08:09;100094.22;;;17.64;46.24
46347;BME280;32057;47.830;19.046;2023-04-21T11:10:47;100093.53;;;17.50;42.80
46347;BME280;32057;47.830;19.046;2023-04-21T11:13:13;100094.69;;;17.24;44.44
46347;BME280;32057;47.830;19.046;2023-04-21T11:15:39;100099.88;;;17.30;45.36
46347;BME280;32057;47.830;19.046;2023-04-21T11:18:05;100100.00;;;17.18;43.57
46347;BME280;32057;47.830;19.046;2023-04-21T11:20:32;100091.19;;;17.22;41.93
46347;BME280;32057;47.830;19.046;2023-04-21T11:22:58;100091.28;;;17.13;45.73
46347;BME280;32057;47.830;19.046;2023-04-21T11:25:23;100091.41;;;17.02;45.63
46347;BME280;32057;47.830;19.046;2023-04-21T11:27:53;100089.56;;;17.09;45.81
46347;BME280;32057;47.830;19.046;2023-04-21T11:30:20;100096.53;;;17.13;43.33
46347;BME280;32057;47.830;19.046;2023-04-21T11:32:52;100084.28;;;17.14;41.81
46347;BME280;32057;47.830;19.046;2023-04-21T11:35:18;100090.41;;;17.12;43.25
46347;BME280;32057;47.830;19.046;2023-04-21T11:37:43;100095.53;;;17.25;44.36
46347;BME280;32057;47.830;19.046;2023-04-21T11:40:09;100090.19;;;17.36;45.95
46347;BME280;32057;47.830;19.046;2023-04-21T11:42:35;100094.47;;;17.43;47.18
46347;BME280;32057;47.830;19.046;2023-04-21T11:45:01;100087.34;;;17.51;47.37
46347;BME280;32057;47.830;19.046;2023-04-21T11:47:27;100090.88;;;17.50;44.68
46347;BME280;32057;47.830;19.046;2023-04-21T11:49:57;100084.63;;;17.60;46.13
46347;BME280;32057;47.830;19.046;2023-04-21T11:52:24;100084.59;;;17.62;41.02
46347;BME280;32057;47.830;19.046;2023-04-21T11:54:57;100074.19;;;17.54;44.34
46347;BME280;32057;47.830;19.046;2023-04-21T11:57:24;100070.50;;;17.67;46.43
46347;BME280;32057;47.830;19.046;2023-04-21T11:59:51;100073.09;;;17.70;44.76
46347;BME280;32057;47.830;19.046;2023-04-21T12:02:22;100063.47;;;17.69;40.79
46347;BME280;32057;47.830;19.046;2023-04-21T12:05:07;100069.53;;;17.75;44.48
46347;BME280;32057;47.830;19.046;2023-04-21T12:07:35;100060.69;;;17.83;44.24
46347;BME280;32057;47.830;19.046;2023-04-21T12:10:01;100056.22;;;17.88;42.97
46347;BME280;32057;47.830;19.046;2023-04-21T12:12:36;100062.19;;;18.01;48.77
46347;BME280;32057;47.830;19.046;2023-04-21T12:15:02;100060.31;;;18.09;43.26
46347;BME280;32057;47.830;19.046;2023-04-21T12:20:06;100049.91;;;18.55;46.34
46347;BME280;32057;47.830;19.046;2023-04-21T12:22:31;100048.09;;;18.58;43.21
46347;BME280;32057;47.830;19.046;2023-04-21T12:24:57;100051.66;;;18.57;42.10
46347;BME280;32057;47.830;19.046;2023-04-21T12:27:22;100051.66;;;18.56;47.30
46347;BME280;32057;47.830;19.046;2023-04-21T12:29:48;100050.81;;;18.54;41.49
46347;BME280;32057;47.830;19.046;2023-04-21T12:32:14;100045.66;;;18.47;43.46
46347;BME280;32057;47.830;19.046;2023-04-21T12:34:39;100040.50;;;18.40;45.31
46347;BME280;32057;47.830;19.046;2023-04-21T12:37:05;100038.84;;;18.34;43.38
46347;BME280;32057;47.830;19.046;2023-04-21T12:39:32;100036.19;;;18.36;47.82
46347;BME280;32057;47.830;19.046;2023-04-21T12:41:58;100040.63;;;18.32;50.75
46347;BME280;32057;47.830;19.046;2023-04-21T12:44:23;100036.41;;;18.23;47.03